الصفحة الرئيسية
METAR-TAF:

METAR-TAF

مطار :

غواياكيل, الإكوادور

دائرة عرض: 02-09S, خط طول: 079-53W, ارتفاع: 4 متر

مراقبة الطقس الحالي

تاريخ ووقت الإصدار 41 دقيقة قبل الساعة 02:00UTC
ريح 14 عقدة من الجنوب الغربي
درجة الحرارة 25°درجة مئوية
الرطوبة 79%
ضغط 1011 hPa
الرؤية 10 كم أو أكثر
غيوم قليلة على ارتفاع 2300 قدم

METAR: SEGU 250200Z 22014KT 9999 FEW023 25/21 Q1011 NOSIG RMK A2985

زمن: 21:41 (02:41 UTC)

توقعات

تاريخ ووقت الإصدار 3ساعات و 26 دقيقة قبل الساعة 23:15UTC
التوقعات صالحة من25 الساعة 00 UTC إلى 25 الساعة 24 UTC
ريح 9 عقدة من الجنوب الغربي
الرؤية 10 كم أو أكثر
غيوم قليلة على ارتفاع 1300 قدم
غيوم مفككة على ارتفاع 2300 قدم
أصبح
من 25 الساعة 14 UTC إلى 25 الساعة 16 UTC
غيوم متفرقة على ارتفاع 2600 قدم
غيوم مفككة على ارتفاع 10000 قدم
أصبح
من 25 الساعة 18 UTC إلى 25 الساعة 20 UTC
غيوم مفككة على ارتفاع 2300 قدم
غيوم مفككة على ارتفاع 10000 قدم

TAF: SEGU 242315Z 2500/2524 22009KT 9999 FEW013 BKN023 BECMG 2514/2516 SCT026 BKN100 BECMG 2518/2520 BKN023 BKN100 TX31/2520Z TN23/2510Z

أرصاد الطقس والتوقعات من أكثر من 4000 مطار (تقارير الطقس للمطار METAR والتنبؤ بالطقس بالمطارTAF).

المحطات المتاحة هي النقط الصفراء والحمراء على الخريطة.

حرك المؤشر فوق النقطة لمعرفة اسم المحطة.

ثم انقر لمعرفة أرصاد وتوقعات الطقس.

لتغيير الخارطة: اضغط على الأزرار الخضراء مع رمز الصليب الأسود للتكبير. على الزر الأخضر مع شرطة للتصغير، أو على الأسهم الخضراء للخرائط المجاورة.


METAR-TAF: